Time;durP1;ratioP1;P1;durP2;ratioP2;P2;SDS_P1;SDS_P2;PMS_P1;PMS_P2;Temp;Humidity;BMP_temperature;BMP_pressure;BME280_temperature;BME280_humidity;BME280_pressure;Samples;Min_cycle;Max_cycle;Signal;HPM_P1;HPM_P2
2023/09/06 04:22:33;;;;;;;4.80;3.20;;;;;;;16.13;90.03;100517.94;5089197;28;20914;-68
2023/09/06 04:24:59;;;;;;;4.47;3.22;;;;;;;16.09;90.26;100516.69;5089471;28;20052;-69
2023/09/06 04:27:24;;;;;;;6.32;3.70;;;;;;;16.05;90.91;100514.63;5089349;28;20059;-68
2023/09/06 04:29:50;;;;;;;5.15;3.88;;;;;;;16.04;90.64;100521.88;5089329;28;20024;-68
2023/09/06 04:32:17;;;;;;;6.93;3.70;;;;;;;16.04;90.46;100512.94;5087735;28;20074;-67
2023/09/06 04:34:43;;;;;;;4.72;3.60;;;;;;;16.01;90.74;100514.19;5088080;28;20036;-68
2023/09/06 04:37:12;;;;;;;4.10;3.35;;;;;;;16.00;91.07;100517.91;5087858;28;20048;-69
2023/09/06 04:39:41;;;;;;;4.80;3.45;;;;;;;15.97;90.69;100516.47;5087959;28;20086;-67
2023/09/06 04:42:11;;;;;;;6.60;3.60;;;;;;;15.97;90.56;100516.47;5087518;28;20063;-67
2023/09/06 04:44:37;;;;;;;4.30;3.30;;;;;;;15.99;90.45;100519.78;5087822;28;20036;-68
2023/09/06 04:47:03;;;;;;;7.15;3.33;;;;;;;16.02;89.68;100526.59;5089015;28;20364;-68
2023/09/06 04:49:28;;;;;;;6.38;3.65;;;;;;;15.99;89.92;100513.56;5087734;28;20060;-69
2023/09/06 04:51:54;;;;;;;4.97;3.40;;;;;;;16.00;89.72;100518.72;5087418;28;20375;-67
2023/09/06 04:54:21;;;;;;;4.25;3.38;;;;;;;16.05;89.05;100517.31;5088338;28;20039;-68
2023/09/06 04:56:46;;;;;;;5.27;3.27;;;;;;;16.06;89.25;100516.28;5087490;28;20036;-67
2023/09/06 04:59:14;;;;;;;7.93;3.53;;;;;;;16.09;88.53;100519.38;5084670;28;20029;-68
2023/09/06 05:01:39;;;;;;;4.00;3.22;;;;;;;16.05;89.55;100517.31;5086919;28;20051;-68
2023/09/06 05:04:04;;;;;;;5.22;3.45;;;;;;;16.05;89.29;100512.75;5087254;28;20415;-68
2023/09/06 05:06:30;;;;;;;4.72;3.25;;;;;;;16.02;89.62;100521.22;5087258;28;20395;-68
2023/09/06 05:08:55;;;;;;;4.75;3.35;;;;;;;16.09;88.75;100523.91;5087727;28;20414;-69
2023/09/06 05:11:23;;;;;;;5.70;3.67;;;;;;;16.05;89.48;100528.88;5087366;28;20495;-68
2023/09/06 05:13:50;;;;;;;5.90;3.85;;;;;;;16.06;89.08;100529.72;5086934;28;20370;-69
2023/09/06 05:16:16;;;;;;;6.55;3.58;;;;;;;16.10;88.50;100528.25;5087087;28;20043;-69
2023/09/06 05:18:42;;;;;;;5.15;3.28;;;;;;;16.11;88.43;100535.31;5087205;28;20115;-69
2023/09/06 05:21:08;;;;;;;5.32;3.40;;;;;;;16.08;89.50;100533.00;5086941;28;20123;-68
2023/09/06 05:23:36;;;;;;;5.22;3.47;;;;;;;16.06;89.55;100545.84;5088115;28;20036;-67
2023/09/06 05:26:02;;;;;;;5.25;3.40;;;;;;;16.10;89.60;100537.16;5086992;28;20418;-69
2023/09/06 05:28:33;;;;;;;5.50;3.63;;;;;;;16.01;90.37;100543.75;5086941;28;20036;-68
2023/09/06 05:31:03;;;;;;;5.43;3.72;;;;;;;15.97;90.85;100543.34;5086908;28;20070;-68
2023/09/06 05:33:31;;;;;;;5.57;3.53;;;;;;;15.92;91.53;100548.47;5075657;28;20047;-68
2023/09/06 05:35:59;;;;;;;4.55;3.85;;;;;;;15.94;93.83;100553.63;5073228;28;20402;-68
2023/09/06 05:38:24;;;;;;;6.10;3.90;;;;;;;15.93;93.32;100558.19;5074627;28;20036;-69
2023/09/06 05:40:50;;;;;;;5.80;3.70;;;;;;;15.97;92.20;100563.97;5073098;28;20132;-68
2023/09/06 05:43:22;;;;;;;6.22;4.15;;;;;;;16.06;92.29;100567.34;5072844;28;20045;-66
2023/09/06 05:45:48;;;;;;;9.98;4.05;;;;;;;16.04;92.79;100574.75;5073400;28;20036;-69
2023/09/06 05:48:14;;;;;;;5.53;3.42;;;;;;;16.04;90.24;100582.81;5074515;28;20111;-69
2023/09/06 05:50:39;;;;;;;5.55;3.35;;;;;;;16.11;89.59;100579.13;5073205;28;20029;-68
2023/09/06 05:53:06;;;;;;;5.75;3.78;;;;;;;16.22;88.88;100583.09;5072760;28;20045;-69
2023/09/06 05:55:32;;;;;;;6.05;3.55;;;;;;;16.28;88.83;100576.91;5072911;28;20068;-69
2023/09/06 05:57:57;;;;;;;5.68;3.75;;;;;;;16.35;88.36;100577.75;5072885;28;20075;-68
2023/09/06 06:00:24;;;;;;;4.85;3.10;;;;;;;16.42;87.96;100577.75;5072851;28;20036;-69
2023/09/06 06:02:55;;;;;;;4.57;3.38;;;;;;;16.48;87.37;100580.47;5072680;28;20464;-68
2023/09/06 06:05:21;;;;;;;6.05;4.38;;;;;;;16.51;87.63;100588.13;5072786;28;20045;-67
2023/09/06 06:07:46;;;;;;;7.13;3.53;;;;;;;16.56;87.42;100590.19;5072755;28;20032;-68
2023/09/06 06:10:13;;;;;;;6.47;4.22;;;;;;;16.54;87.81;100590.41;5072744;28;20044;-68
2023/09/06 06:12:39;;;;;;;6.85;3.70;;;;;;;16.61;88.19;100593.09;5073647;28;20036;-69
2023/09/06 06:15:08;;;;;;;5.10;3.35;;;;;;;16.64;87.58;100590.03;5073913;28;20068;-69
2023/09/06 06:17:33;;;;;;;6.03;3.40;;;;;;;16.68;87.56;100595.81;5073778;28;20119;-68
2023/09/06 06:19:59;;;;;;;4.45;3.55;;;;;;;16.73;87.34;100593.38;5073894;28;20132;-68
2023/09/06 06:22:24;;;;;;;5.47;3.60;;;;;;;16.77;87.23;100598.16;5073188;28;20149;-69
2023/09/06 06:24:50;;;;;;;6.20;3.55;;;;;;;16.84;88.25;100602.69;5073763;28;20040;-68
2023/09/06 06:27:15;;;;;;;5.20;3.72;;;;;;;16.89;87.77;100594.81;5073590;28;20041;-67
2023/09/06 06:29:41;;;;;;;4.75;4.03;;;;;;;16.93;86.89;100588.81;5073662;28;20564;-69
2023/09/06 06:32:07;;;;;;;6.50;3.40;;;;;;;16.98;88.47;100589.03;5073282;28;20041;-68
2023/09/06 06:34:32;;;;;;;6.25;3.30;;;;;;;17.04;86.95;100590.91;5073480;28;20123;-68
2023/09/06 06:36:58;;;;;;;5.60;3.53;;;;;;;17.07;86.17;100590.47;5073413;28;20071;-69
2023/09/06 06:39:23;;;;;;;5.93;3.60;;;;;;;17.17;86.46;100597.31;5073381;28;20075;-69
2023/09/06 06:41:48;;;;;;;5.00;3.60;;;;;;;17.21;85.77;100609.31;5073065;28;20039;-68
2023/09/06 06:44:14;;;;;;;5.68;3.75;;;;;;;17.22;87.20;100605.63;5072299;28;20047;-68
2023/09/06 06:46:39;;;;;;;6.13;3.88;;;;;;;17.31;85.27;100617.81;5073191;28;20047;-64
2023/09/06 06:49:07;;;;;;;4.93;3.63;;;;;;;17.34;85.14;100617.38;5073323;28;20761;-64
2023/09/06 06:51:38;;;;;;;5.05;3.47;;;;;;;17.46;86.61;100618.41;5073101;28;20498;-62
2023/09/06 06:54:14;;;;;;;5.65;3.80;;;;;;;17.50;84.28;100627.75;5073259;28;20470;-64
2023/09/06 06:56:40;;;;;;;5.70;3.17;;;;;;;17.62;85.32;100634.16;5072977;28;20475;-64
2023/09/06 06:59:07;;;;;;;4.95;3.75;;;;;;;17.66;83.17;100622.94;5073007;28;20038;-63
2023/09/06 07:01:33;;;;;;;4.05;3.30;;;;;;;17.72;83.77;100627.50;5073117;28;20124;-64
2023/09/06 07:03:59;;;;;;;4.20;3.28;;;;;;;17.81;84.30;100632.47;5072553;28;20472;-64
2023/09/06 07:06:26;;;;;;;5.38;3.40;;;;;;;17.86;83.78;100629.97;5072880;28;20032;-63
2023/09/06 07:08:53;;;;;;;5.22;4.05;;;;;;;17.91;82.58;100629.34;5072859;28;20115;-63
2023/09/06 07:11:20;;;;;;;;;;;;;;;17.94;81.56;100615.44;5073224;28;20032;-63
2023/09/06 07:13:49;;;;;;;4.57;3.65;;;;;;;17.98;80.85;100626.63;5072609;28;20333;-63
2023/09/06 07:16:19;;;;;;;4.45;3.03;;;;;;;18.03;81.62;100616.84;5072725;28;20036;-63
2023/09/06 07:18:48;;;;;;;6.53;3.42;;;;;;;18.11;80.30;100613.91;5072628;28;20028;-63
2023/09/06 07:21:15;;;;;;;5.63;3.30;;;;;;;18.15;80.52;100612.47;5072465;28;20123;-63
2023/09/06 07:23:40;;;;;;;4.75;3.38;;;;;;;18.25;80.68;100614.69;5072294;28;20074;-63
2023/09/06 07:26:06;;;;;;;5.75;3.83;;;;;;;18.33;79.95;100610.94;5072433;28;20040;-62
2023/09/06 07:28:41;;;;;;;5.63;3.70;;;;;;;18.41;80.23;100613.38;5072488;28;20036;-63
2023/09/06 07:31:07;;;;;;;6.45;3.70;;;;;;;18.46;78.41;100610.88;5072460;28;20028;-64
2023/09/06 07:33:33;;;;;;;10.00;5.05;;;;;;;18.51;78.00;100616.41;5072164;28;20499;-63
2023/09/06 07:35:59;;;;;;;4.30;3.25;;;;;;;18.57;78.46;100622.81;5072448;28;20044;-63
2023/09/06 07:38:24;;;;;;;7.90;3.70;;;;;;;18.54;77.86;100610.59;5072435;28;20040;-63
2023/09/06 07:41:00;;;;;;;6.50;3.25;;;;;;;18.72;78.83;100620.69;5072269;28;20040;-63
2023/09/06 07:43:28;;;;;;;6.07;3.70;;;;;;;18.79;78.18;100623.34;5072019;28;20036;-63
2023/09/06 07:45:57;;;;;;;6.57;3.55;;;;;;;18.85;77.90;100631.41;5072238;28;20048;-63
2023/09/06 07:48:24;;;;;;;5.53;3.22;;;;;;;18.89;77.50;100635.31;5072440;28;20055;-63
2023/09/06 07:50:50;;;;;;;5.53;3.42;;;;;;;18.97;78.61;100632.38;5072249;28;20491;-64
2023/09/06 07:53:15;;;;;;;6.88;3.85;;;;;;;19.04;76.11;100626.06;5071893;28;20044;-63
2023/09/06 07:55:45;;;;;;;5.78;3.50;;;;;;;19.09;75.59;100637.03;5071523;28;20044;-63
2023/09/06 07:58:10;;;;;;;7.65;3.58;;;;;;;19.15;75.27;100631.56;5072065;28;20041;-64
2023/09/06 08:00:36;;;;;;;5.60;4.18;;;;;;;19.22;76.67;100628.81;5072087;28;20036;-63
2023/09/06 08:03:03;;;;;;;8.02;4.32;;;;;;;19.28;76.30;100637.91;5071781;28;20033;-64
2023/09/06 08:05:29;;;;;;;5.53;3.70;;;;;;;19.35;75.08;100630.59;5071996;28;20044;-63
2023/09/06 08:07:54;;;;;;;5.80;3.60;;;;;;;19.42;75.80;100628.66;5072006;28;20344;-63
2023/09/06 08:10:21;;;;;;;5.68;3.80;;;;;;;19.51;75.88;100632.72;5072022;28;20475;-64
2023/09/06 08:12:46;;;;;;;5.85;4.25;;;;;;;19.55;75.30;100633.09;5071789;28;20040;-63
2023/09/06 08:15:13;;;;;;;5.28;3.78;;;;;;;19.61;74.51;100633.06;5071884;28;20040;-64
2023/09/06 08:17:39;;;;;;;6.65;3.63;;;;;;;19.69;75.23;100638.19;5071863;28;20056;-64
2023/09/06 08:20:08;;;;;;;6.13;3.60;;;;;;;19.82;73.88;100634.50;5071858;28;20032;-64
2023/09/06 08:22:35;;;;;;;8.85;4.22;;;;;;;19.92;74.21;100634.00;5071545;28;20518;-63
2023/09/06 08:25:02;;;;;;;6.10;3.70;;;;;;;20.01;73.31;100633.47;5062900;28;20569;-50
2023/09/06 08:27:28;;;;;;;5.00;3.78;;;;;;;20.13;73.06;100635.41;5060208;28;20033;-51
2023/09/06 08:29:53;;;;;;;5.50;3.53;;;;;;;20.25;71.77;100630.91;5062035;28;20036;-52
2023/09/06 08:32:18;;;;;;;7.38;3.85;;;;;;;20.31;71.56;100625.41;5061241;28;20017;-49
2023/09/06 08:34:44;;;;;;;4.75;3.25;;;;;;;20.45;72.39;100627.97;5060318;28;20049;-53
2023/09/06 08:37:10;;;;;;;8.43;3.95;;;;;;;20.55;72.99;100628.25;5060203;28;20033;-51
2023/09/06 08:39:35;;;;;;;6.43;3.85;;;;;;;20.70;72.06;100631.34;5061315;28;20041;-54
2023/09/06 08:42:03;;;;;;;5.40;3.63;;;;;;;20.81;70.62;100627.88;5061691;28;20044;-51
2023/09/06 08:44:32;;;;;;;5.70;4.03;;;;;;;20.88;68.80;100626.94;5060147;28;20044;-50
2023/09/06 08:47:01;;;;;;;5.47;3.58;;;;;;;20.97;68.01;100631.78;5061049;28;20067;-52
2023/09/06 08:49:27;;;;;;;5.82;3.38;;;;;;;21.07;66.87;100625.81;5061544;28;20043;-50
2023/09/06 08:51:58;;;;;;;7.00;3.78;;;;;;;21.17;68.19;100630.63;5058909;28;20472;-50
2023/09/06 08:54:24;;;;;;;5.18;3.72;;;;;;;21.39;66.41;100634.47;5059983;28;20043;-50
2023/09/06 08:56:50;;;;;;;6.97;3.75;;;;;;;21.49;66.38;100633.88;5059976;28;20509;-52
2023/09/06 08:59:18;;;;;;;5.53;3.65;;;;;;;21.58;64.54;100627.03;5061238;28;20495;-49
2023/09/06 09:01:43;;;;;;;4.90;3.63;;;;;;;21.68;64.42;100627.25;5061714;28;20108;-48
2023/09/06 09:04:09;;;;;;;5.43;3.88;;;;;;;21.72;62.88;100622.22;5059909;28;20449;-49
2023/09/06 09:06:35;;;;;;;6.40;4.13;;;;;;;21.82;63.43;100630.53;5060418;28;20044;-50
2023/09/06 09:09:14;;;;;;;7.07;4.45;;;;;;;21.94;61.20;100631.34;5048065;28;20391;-51
2023/09/06 09:11:50;;;;;;;5.53;3.58;;;;;;;22.02;61.53;100628.25;5064665;28;20047;-51
2023/09/06 09:14:21;;;;;;;6.40;3.90;;;;;;;22.21;60.94;100637.09;5064615;28;20040;-48
2023/09/06 09:16:57;;;;;;;8.63;3.65;;;;;;;22.29;61.93;100623.16;5063412;28;20108;-49
2023/09/06 09:19:23;;;;;;;6.07;3.58;;;;;;;22.39;61.94;100620.63;5063830;28;20040;-54
2023/09/06 09:21:52;;;;;;;7.53;4.15;;;;;;;22.49;61.45;100628.13;5062491;28;20031;-51
2023/09/06 09:24:28;;;;;;;8.55;4.10;;;;;;;22.61;61.81;100620.78;5054798;28;20039;-49
2023/09/06 09:26:56;;;;;;;4.55;3.30;;;;;;;22.75;60.08;100632.16;5054841;28;20052;-51
2023/09/06 09:29:22;;;;;;;6.50;4.47;;;;;;;22.86;60.14;100622.31;5054816;28;20078;-50
2023/09/06 09:31:48;;;;;;;5.55;3.38;;;;;;;23.04;59.19;100622.09;5054423;28;20090;-52
2023/09/06 09:34:14;;;;;;;6.65;3.90;;;;;;;23.19;58.98;100622.34;5054747;28;20048;-49
2023/09/06 09:36:39;;;;;;;7.20;4.00;;;;;;;23.32;58.14;100618.47;5053432;28;20645;-49
2023/09/06 09:39:08;;;;;;;5.60;3.92;;;;;;;23.53;57.23;100609.53;5054927;28;20446;-49
2023/09/06 09:41:35;;;;;;;5.78;4.00;;;;;;;23.70;55.73;100614.97;5053491;28;20028;-49
2023/09/06 09:44:16;;;;;;;5.75;3.85;;;;;;;23.78;55.53;100613.72;5054321;28;20079;-53
2023/09/06 09:46:45;;;;;;;7.70;3.88;;;;;;;23.88;55.21;100613.06;5054306;28;20472;-49
2023/09/06 09:49:12;;;;;;;6.50;4.13;;;;;;;24.12;54.85;100610.88;5054319;28;20068;-49
2023/09/06 09:51:39;;;;;;;5.50;3.53;;;;;;;24.21;54.57;100607.47;5054264;28;20044;-48
2023/09/06 09:54:06;;;;;;;5.45;3.83;;;;;;;24.43;54.63;100610.19;5054377;28;20038;-53
2023/09/06 09:56:33;;;;;;;5.53;3.83;;;;;;;24.58;52.39;100599.47;5054362;28;20029;-48
2023/09/06 09:59:02;;;;;;;5.45;3.50;;;;;;;24.88;52.12;100596.19;5054230;28;20116;-53
2023/09/06 10:01:28;;;;;;;5.72;3.70;;;;;;;25.09;51.43;100599.09;5054231;28;20044;-48
2023/09/06 10:04:00;;;;;;;4.97;3.85;;;;;;;25.33;50.98;100602.28;5054009;28;20040;-49
2023/09/06 10:06:33;;;;;;;7.35;4.20;;;;;;;25.54;49.59;100603.22;5054151;28;20051;-50
2023/09/06 10:09:00;;;;;;;6.38;4.13;;;;;;;26.10;48.81;100601.63;5054625;28;20037;-49
2023/09/06 10:11:29;;;;;;;5.32;3.70;;;;;;;26.61;47.41;100600.97;5053191;28;20040;-49
2023/09/06 10:13:59;;;;;;;5.45;3.63;;;;;;;27.13;45.96;100587.09;5054198;28;20041;-54
2023/09/06 10:16:25;;;;;;;6.63;4.13;;;;;;;27.41;45.44;100593.06;5044450;28;20063;-52
2023/09/06 10:18:50;;;;;;;5.60;3.80;;;;;;;27.90;44.91;100595.94;5062509;28;20037;-50
2023/09/06 10:21:18;;;;;;;5.60;4.03;;;;;;;28.15;43.49;100592.25;5064333;28;20112;-51
2023/09/06 10:23:46;;;;;;;5.20;3.70;;;;;;;28.47;42.98;100591.84;5063577;28;20430;-51
2023/09/06 10:26:11;;;;;;;4.88;3.78;;;;;;;28.75;41.91;100587.53;5062312;28;20029;-50
2023/09/06 10:28:37;;;;;;;7.05;4.28;;;;;;;28.99;41.56;100586.81;5062770;28;20364;-54
2023/09/06 10:31:11;;;;;;;4.43;4.00;;;;;;;29.52;40.11;100590.44;5063533;28;20033;-49
2023/09/06 10:33:36;;;;;;;7.30;4.20;;;;;;;29.91;39.86;100592.19;5062604;28;20547;-51
2023/09/06 10:36:07;;;;;;;5.88;3.92;;;;;;;29.92;40.07;100589.13;5062939;28;20098;-49
2023/09/06 10:38:35;;;;;;;5.03;3.80;;;;;;;30.21;39.61;100589.06;5064081;28;20123;-49
2023/09/06 10:41:00;;;;;;;6.47;3.95;;;;;;;30.53;38.79;100591.09;5063016;28;20021;-49
2023/09/06 10:43:41;;;;;;;5.10;3.92;;;;;;;30.41;38.49;100587.97;5062096;28;20162;-49
2023/09/06 10:46:10;;;;;;;6.13;3.60;;;;;;;30.79;38.08;100579.72;5063737;28;20040;-50
2023/09/06 10:48:35;;;;;;;5.53;4.57;;;;;;;30.74;37.70;100572.38;5062298;28;20031;-50
2023/09/06 10:51:07;;;;;;;4.82;3.95;;;;;;;30.96;37.41;100579.16;5070186;28;20048;-49
2023/09/06 10:53:34;;;;;;;6.80;4.18;;;;;;;31.04;36.97;100565.53;5072934;28;20479;-50
2023/09/06 10:56:01;;;;;;;;;;;;;;;31.29;35.93;100566.19;5073543;28;20629;-51
2023/09/06 10:58:29;;;;;;;5.25;3.45;;;;;;;31.41;36.66;100562.97;5073042;28;20003;-49
2023/09/06 11:01:13;;;;;;;6.45;4.05;;;;;;;31.38;35.98;100561.66;5073061;28;20119;-50
2023/09/06 11:03:39;;;;;;;4.63;4.10;;;;;;;31.58;36.66;100560.44;5072594;28;20123;-50
2023/09/06 11:06:05;;;;;;;5.63;3.88;;;;;;;31.30;36.83;100565.09;5072935;28;20043;-49
2023/09/06 11:08:31;;;;;;;5.97;4.10;;;;;;;31.73;34.98;100556.53;5072958;28;20037;-49
2023/09/06 11:11:07;;;;;;;4.55;3.58;;;;;;;32.21;35.54;100561.56;5072811;28;20506;-48
2023/09/06 11:13:33;;;;;;;7.70;3.88;;;;;;;32.29;35.02;100563.63;5072554;28;20033;-48
2023/09/06 11:16:00;;;;;;;5.68;3.90;;;;;;;32.98;34.68;100555.91;5072638;28;20032;-64
2023/09/06 11:18:30;;;;;;;4.68;3.70;;;;;;;32.83;33.62;100553.50;5072726;28;20476;-65
2023/09/06 11:20:56;;;;;;;5.80;4.05;;;;;;;33.28;32.79;100556.22;5072483;28;20036;-63
2023/09/06 11:23:22;;;;;;;5.40;4.13;;;;;;;32.71;33.95;100559.59;5072366;28;20039;-61
2023/09/06 11:25:54;;;;;;;5.40;3.80;;;;;;;32.60;34.15;100558.19;5072587;28;20437;-63
2023/09/06 11:28:21;;;;;;;4.38;3.78;;;;;;;33.29;32.98;100555.09;5072550;28;20043;-66
2023/09/06 11:30:47;;;;;;;;;;;;;;;32.64;33.94;100557.28;5072494;28;20094;-61
2023/09/06 11:33:15;;;;;;;5.85;3.85;;;;;;;32.62;32.14;100553.22;5072194;28;19920;-65
2023/09/06 11:35:46;;;;;;;6.72;4.22;;;;;;;33.51;32.49;100551.47;5072421;28;20411;-64
2023/09/06 11:38:14;;;;;;;5.78;3.83;;;;;;;33.84;32.22;100549.13;5072452;28;20097;-63
2023/09/06 11:40:41;;;;;;;12.27;4.65;;;;;;;34.09;32.31;100536.50;5072221;28;20479;-64
2023/09/06 11:43:10;;;;;;;6.40;4.35;;;;;;;34.37;30.76;100540.59;5072009;28;20459;-63
2023/09/06 11:45:36;;;;;;;7.22;3.88;;;;;;;34.18;30.86;100540.09;5072245;28;20043;-63
2023/09/06 11:48:08;;;;;;;6.07;4.10;;;;;;;34.52;30.95;100536.56;5072261;28;20040;-64
2023/09/06 11:50:35;;;;;;;6.35;4.35;;;;;;;34.74;31.08;100539.09;5072224;28;20045;-64
2023/09/06 11:53:04;;;;;;;6.43;4.55;;;;;;;34.99;30.13;100531.91;5071938;28;20032;-64
2023/09/06 11:55:33;;;;;;;6.45;4.60;;;;;;;34.43;30.38;100539.34;5072092;28;20147;-64
2023/09/06 11:57:59;;;;;;;7.40;4.00;;;;;;;34.01;30.56;100525.13;5072002;28;20505;-64
2023/09/06 12:00:38;;;;;;;6.70;3.95;;;;;;;34.51;30.20;100524.69;5072132;28;20075;-64
2023/09/06 12:03:08;;;;;;;5.60;3.95;;;;;;;34.52;30.44;100525.50;5064237;28;20061;-63
2023/09/06 12:05:41;;;;;;;5.80;4.15;;;;;;;34.34;30.34;100521.06;5062253;28;20059;-63
2023/09/06 12:08:09;;;;;;;5.20;4.10;;;;;;;34.95;30.00;100510.75;5041603;28;20033;-63
2023/09/06 12:10:35;;;;;;;8.38;4.03;;;;;;;34.75;29.61;100504.75;5043344;28;20048;-64
2023/09/06 12:13:04;;;;;;;7.65;4.65;;;;;;;34.45;29.99;100516.88;5062432;28;20511;-63
2023/09/06 12:15:30;;;;;;;5.40;4.03;;;;;;;34.99;29.55;100503.44;5060604;28;20049;-62
2023/09/06 12:17:56;;;;;;;7.13;4.43;;;;;;;34.77;29.98;100496.97;5045462;28;20679;-63
2023/09/06 12:20:23;;;;;;;5.57;4.00;;;;;;;34.62;30.34;100499.44;5062508;28;20048;-63
2023/09/06 12:22:51;;;;;;;7.28;4.18;;;;;;;35.04;30.20;100501.31;5059955;28;20029;-63
2023/09/06 12:25:18;;;;;;;7.90;4.47;;;;;;;35.01;29.51;100493.66;5062009;28;20060;-62
2023/09/06 12:27:48;;;;;;;8.02;4.18;;;;;;;35.37;29.53;100497.09;5059952;28;20087;-63
2023/09/06 12:30:16;;;;;;;6.18;4.43;;;;;;;35.42;29.73;100494.97;5046611;28;20024;-63
2023/09/06 12:32:42;;;;;;;6.05;4.00;;;;;;;35.31;29.99;100486.19;5059070;28;20496;-63
2023/09/06 12:35:09;;;;;;;4.82;3.75;;;;;;;35.00;30.12;100491.22;5060993;28;20032;-63
2023/09/06 12:37:39;;;;;;;6.57;4.70;;;;;;;35.55;29.50;100484.81;5058482;28;20044;-63
2023/09/06 12:40:10;;;;;;;8.88;4.68;;;;;;;35.77;28.82;100480.91;5061274;28;20040;-63
2023/09/06 12:42:46;;;;;;;7.30;4.70;;;;;;;35.87;29.08;100470.25;5062983;28;20111;-64
2023/09/06 12:45:17;;;;;;;;;;;;;;;36.31;28.45;100476.22;5068354;28;20028;-63
2023/09/06 12:47:43;;;;;;;8.10;4.38;;;;;;;36.05;28.59;100467.34;5063683;28;19947;-62
2023/09/06 12:50:09;;;;;;;8.10;4.73;;;;;;;36.12;28.78;100462.88;5052408;28;20068;-63
2023/09/06 12:52:35;;;;;;;5.43;4.30;;;;;;;36.51;28.51;100457.94;5055195;28;20303;-64
2023/09/06 12:55:00;;;;;;;7.13;4.30;;;;;;;36.73;28.12;100456.75;5058001;28;20032;-64
2023/09/06 12:57:29;;;;;;;5.23;4.30;;;;;;;36.51;28.18;100462.69;5064577;28;20051;-64
2023/09/06 12:59:58;;;;;;;4.63;3.95;;;;;;;35.71;28.79;100451.78;5046184;28;20032;-64
2023/09/06 13:02:25;;;;;;;5.05;4.18;;;;;;;35.99;28.77;100454.84;5049934;28;20110;-64
2023/09/06 13:04:51;;;;;;;7.50;3.90;;;;;;;36.32;28.11;100461.25;5066825;28;20056;-64
2023/09/06 13:07:17;;;;;;;6.07;4.40;;;;;;;36.63;28.02;100454.41;5072047;28;20484;-65
2023/09/06 13:09:42;;;;;;;7.40;4.43;;;;;;;36.80;27.38;100456.19;5058682;28;20120;-64
2023/09/06 13:12:08;;;;;;;6.60;4.20;;;;;;;36.69;27.53;100448.28;5054770;28;20083;-64
2023/09/06 13:14:34;;;;;;;5.32;4.57;;;;;;;37.02;26.94;100447.44;5055123;28;20060;-63
2023/09/06 13:16:59;;;;;;;7.80;4.07;;;;;;;36.97;27.51;100441.28;5054788;28;20488;-63
2023/09/06 13:19:25;;;;;;;5.80;3.90;;;;;;;37.30;27.39;100444.78;5055177;28;20120;-63
2023/09/06 13:21:50;;;;;;;6.53;4.50;;;;;;;37.28;27.26;100438.75;5054729;28;20040;-63
2023/09/06 13:24:19;;;;;;;4.70;4.07;;;;;;;37.83;26.60;100445.66;5055068;28;20040;-63
2023/09/06 13:26:46;;;;;;;7.22;4.40;;;;;;;37.00;28.31;100443.41;5054878;28;20292;-63
2023/09/06 13:29:11;;;;;;;6.22;3.88;;;;;;;36.80;26.93;100442.31;5054950;28;20496;-64
2023/09/06 13:31:38;;;;;;;10.27;4.43;;;;;;;37.23;26.69;100438.97;5063070;28;20040;-64
2023/09/06 13:34:03;;;;;;;8.60;4.68;;;;;;;37.38;26.66;100441.09;5074538;28;20036;-63
2023/09/06 13:36:36;;;;;;;5.13;4.55;;;;;;;36.48;27.35;100439.25;5074694;28;20044;-62
2023/09/06 13:39:05;;;;;;;6.88;4.70;;;;;;;36.22;27.89;100436.69;5074721;28;20032;-63
2023/09/06 13:41:31;;;;;;;7.20;4.03;;;;;;;36.57;27.00;100428.03;5074620;28;20554;-64
2023/09/06 13:43:56;;;;;;;6.88;4.70;;;;;;;36.78;27.13;100434.34;5074239;28;20124;-64
2023/09/06 13:46:22;;;;;;;6.40;4.47;;;;;;;36.31;27.19;100426.31;5074388;28;20032;-63
2023/09/06 13:48:48;;;;;;;5.87;4.67;;;;;;;36.58;27.54;100424.94;5074502;28;20034;-63
2023/09/06 13:51:14;;;;;;;6.85;4.30;;;;;;;35.99;27.05;100429.91;5074302;28;20074;-64
2023/09/06 13:53:40;;;;;;;8.15;4.30;;;;;;;35.83;28.06;100422.19;5073739;28;20552;-61
2023/09/06 13:56:05;;;;;;;7.85;4.32;;;;;;;35.44;28.07;100417.09;5074308;28;20036;-63
2023/09/06 13:58:31;;;;;;;7.73;4.40;;;;;;;34.98;29.18;100404.97;5074261;28;20033;-64
2023/09/06 14:00:59;;;;;;;6.68;4.55;;;;;;;34.29;29.84;100408.72;5074177;28;20029;-64
2023/09/06 14:03:25;;;;;;;8.00;4.65;;;;;;;33.42;31.20;100408.69;5073833;28;20063;-64
2023/09/06 14:05:51;;;;;;;6.88;4.40;;;;;;;33.42;30.65;100425.25;5074101;28;20047;-63
2023/09/06 14:08:17;;;;;;;6.82;4.43;;;;;;;33.08;31.52;100414.94;5074198;28;20037;-62
2023/09/06 14:10:42;;;;;;;7.63;4.87;;;;;;;32.59;32.92;100408.50;5074113;28;20040;-64
2023/09/06 14:13:08;;;;;;;6.67;4.53;;;;;;;32.39;32.25;100409.88;5073628;28;20078;-63
2023/09/06 14:15:34;;;;;;;7.73;4.20;;;;;;;32.40;33.73;100405.16;5073946;28;20036;-64
2023/09/06 14:17:59;;;;;;;6.43;4.77;;;;;;;32.48;32.92;100404.44;5073955;28;20495;-64
2023/09/06 14:20:24;;;;;;;6.97;4.97;;;;;;;32.20;33.27;100394.63;5073864;28;20487;-63
2023/09/06 14:22:50;;;;;;;6.60;4.93;;;;;;;31.50;34.25;100393.25;5073660;28;20029;-63
2023/09/06 14:25:16;;;;;;;9.97;4.57;;;;;;;31.74;34.74;100388.28;5073721;28;20551;-64
2023/09/06 14:27:42;;;;;;;7.38;4.78;;;;;;;31.75;34.15;100381.63;5073778;28;20068;-64
2023/09/06 14:30:08;;;;;;;6.13;4.23;;;;;;;31.25;35.08;100389.13;5073670;28;20060;-64
2023/09/06 14:32:35;;;;;;;5.75;4.30;;;;;;;31.43;34.31;100390.09;5073325;28;20174;-63
2023/09/06 14:35:00;;;;;;;5.80;4.53;;;;;;;31.40;34.58;100390.72;5073570;28;20044;-63
2023/09/06 14:37:26;;;;;;;4.77;4.07;;;;;;;31.32;34.02;100387.56;5073494;28;20024;-65
2023/09/06 14:39:51;;;;;;;7.17;4.67;;;;;;;31.22;34.82;100381.44;5073522;28;20487;-63
2023/09/06 14:42:17;;;;;;;7.20;4.43;;;;;;;30.67;35.45;100385.00;5073173;28;20115;-64
2023/09/06 14:44:42;;;;;;;7.27;4.80;;;;;;;30.72;35.48;100365.69;5073313;28;20058;-64
2023/09/06 14:47:08;;;;;;;10.10;4.60;;;;;;;30.61;35.25;100368.88;5073314;28;20406;-64
2023/09/06 14:49:33;;;;;;;7.07;4.35;;;;;;;30.62;35.16;100376.00;5073377;28;20032;-64
2023/09/06 14:51:58;;;;;;;6.45;4.70;;;;;;;30.54;35.65;100374.78;5072948;28;20119;-63
2023/09/06 14:54:24;;;;;;;9.73;4.43;;;;;;;30.59;35.81;100373.88;5073211;28;20479;-64
2023/09/06 14:56:50;;;;;;;6.20;4.80;;;;;;;30.32;35.68;100374.63;5073093;28;20059;-64
2023/09/06 14:59:16;;;;;;;7.50;4.50;;;;;;;30.36;36.11;100376.47;5073048;28;20052;-64
2023/09/06 15:01:41;;;;;;;7.65;4.30;;;;;;;30.12;36.80;100368.38;5072940;28;20028;-64
2023/09/06 15:04:07;;;;;;;7.78;4.47;;;;;;;30.20;36.29;100369.63;5073055;28;20497;-61
2023/09/06 15:06:32;;;;;;;7.72;4.68;;;;;;;30.15;36.30;100366.97;5072007;28;20050;-62
2023/09/06 15:08:57;;;;;;;6.22;4.45;;;;;;;29.97;36.77;100368.59;5072971;28;20047;-63
2023/09/06 15:11:23;;;;;;;7.13;4.50;;;;;;;29.85;37.13;100366.31;5071617;28;20442;-62
2023/09/06 15:13:49;;;;;;;6.20;4.15;;;;;;;29.96;37.84;100365.03;5072665;28;20573;-61
2023/09/06 15:16:14;;;;;;;7.78;4.47;;;;;;;30.00;37.45;100366.09;5072649;28;20407;-62
2023/09/06 15:18:40;;;;;;;7.00;4.72;;;;;;;29.95;37.73;100368.09;5072703;28;20090;-64
2023/09/06 15:21:08;;;;;;;7.40;4.30;;;;;;;29.97;37.40;100366.66;5072668;28;20044;-64
2023/09/06 15:23:33;;;;;;;7.85;4.90;;;;;;;29.92;37.27;100357.69;5072354;28;20050;-61
2023/09/06 15:25:58;;;;;;;7.35;4.50;;;;;;;29.76;37.06;100357.13;5072583;28;20045;-63
2023/09/06 15:28:24;;;;;;;6.28;4.40;;;;;;;29.83;37.73;100359.50;5071352;28;20091;-63
2023/09/06 15:30:50;;;;;;;8.32;4.80;;;;;;;29.76;37.80;100361.81;5072418;28;20078;-64
2023/09/06 15:33:15;;;;;;;9.15;4.38;;;;;;;29.65;37.91;100361.13;5072216;28;20097;-62
2023/09/06 15:35:42;;;;;;;8.07;5.30;;;;;;;29.68;38.30;100360.56;5072448;28;20044;-63
2023/09/06 15:38:08;;;;;;;7.32;4.53;;;;;;;29.70;38.47;100361.88;5072454;28;20037;-61
2023/09/06 15:40:34;;;;;;;6.72;4.20;;;;;;;29.67;37.12;100353.44;5072481;28;20475;-63
2023/09/06 15:42:59;;;;;;;6.57;3.72;;;;;;;29.62;36.83;100362.56;5070889;28;20032;-63
2023/09/06 15:45:25;;;;;;;7.53;4.53;;;;;;;29.65;36.40;100366.63;5072195;28;20131;-62
2023/09/06 15:47:51;;;;;;;8.30;5.20;;;;;;;29.62;36.23;100359.00;5072046;28;20025;-63